Main page
METAR-TAF:

METAR-TAF

Airports :

Lar, Iran

Larestan International Airport

latitude: 27-40-26N, longitude: 054-22-53E, elevation: 792 m

Current weather observation

The report was made 52 minutes ago, at 04:00 UTC
Calm wind
Temperature 30°C
Humidity 43%
Pressure 1008 hPa
Visibility 10 km or more
no clouds below 1500 m and no cumulonimbus

METAR: OISL 240400Z 00000KT CAVOK 30/16 Q1008

Time: 09:22 (04:52 UTC)

Forecast

The report was made 5 hours and 52 minutes ago, at 23:00 UTC
Forecast valid from 24 at 00 UTC to 25 at 06 UTC
Wind 8 kt from the West/Southwest
Visibility 10 km or more
no clouds below 1500 m and no cumulonimbus

TAF: OISL 232300Z 2400/2506 24004MPS CAVOK

Weather observations and forecasts of more than 4000 airports (METAR and TAF reports).

The available stations are represented by yellow and red dots on the map.

Hover mouse over dot to see the name of the station.

Then click to see weather observations and forecasts.

To change the map : click on the green buttons with a black cross to zoom in, on the green button with a dash to zoom out, or on the green arrows for adjacent maps.


METAR-TAF: